Time;durP1;ratioP1;P1;durP2;ratioP2;P2;SDS_P1;SDS_P2;PMS_P1;PMS_P2;Temp;Humidity;BMP_temperature;BMP_pressure;BME280_temperature;BME280_humidity;BME280_pressure;Samples;Min_cycle;Max_cycle;Signal;HPM_P1;HPM_P2
2022/01/14 00:00:44;;;;;;;15.40;8.68;;;;;;;2.01;64.18;100415.88;5020822;28;20026;-64
2022/01/14 00:03:10;;;;;;;12.40;8.38;;;;;;;1.94;64.25;100403.28;5009128;28;20426;-64
2022/01/14 00:05:36;;;;;;;17.83;9.00;;;;;;;1.72;64.81;100393.66;5010437;28;20472;-64
2022/01/14 00:08:01;;;;;;;13.98;8.35;;;;;;;1.91;65.16;100411.91;5023132;28;20065;-64
2022/01/14 00:10:30;;;;;;;12.07;7.72;;;;;;;1.96;65.25;100420.31;5023460;28;20026;-65
2022/01/14 00:13:04;;;;;;;12.10;7.68;;;;;;;1.95;65.28;100413.47;5009888;28;20029;-64
2022/01/14 00:15:34;;;;;;;13.57;8.18;;;;;;;1.94;65.58;100409.25;4977677;28;20049;-65
2022/01/14 00:18:00;;;;;;;14.27;8.27;;;;;;;1.63;65.67;100364.00;5014841;28;20017;-65
2022/01/14 00:20:25;;;;;;;13.52;8.85;;;;;;;1.90;65.98;100403.38;5012897;28;20022;-64
2022/01/14 00:22:50;;;;;;;14.02;8.23;;;;;;;1.97;66.41;100401.47;4998508;28;20064;-64
2022/01/14 00:33:28;;;;;;;14.25;7.97;;;;;;;1.96;66.55;100386.94;5015466;28;20032;-67
2022/01/14 00:35:54;;;;;;;14.30;8.27;;;;;;;1.93;66.27;100389.59;4999200;28;20030;-64
2022/01/14 00:38:20;;;;;;;12.57;7.82;;;;;;;1.96;65.49;100392.09;5012051;28;20560;-64
2022/01/14 00:40:46;;;;;;;12.30;7.85;;;;;;;1.87;65.62;100394.94;5010210;28;20044;-64
2022/01/14 00:43:11;;;;;;;13.52;8.20;;;;;;;1.91;65.13;100401.63;5013095;28;20061;-65
2022/01/14 00:45:38;;;;;;;12.80;7.85;;;;;;;1.59;65.47;100351.28;5012863;28;20049;-65
2022/01/14 00:48:04;;;;;;;11.15;6.60;;;;;;;1.89;64.69;100396.56;5036605;28;20476;-65
2022/01/14 00:50:29;;;;;;;11.43;7.30;;;;;;;1.91;65.09;100402.47;5007585;28;20107;-64
2022/01/14 00:52:55;;;;;;;12.00;7.65;;;;;;;1.94;64.09;100390.47;5027092;28;20091;-64
2022/01/14 00:55:28;;;;;;;14.32;8.00;;;;;;;1.91;65.47;100376.81;5012125;28;20037;-65
2022/01/14 01:00:35;;;;;;;14.65;8.25;;;;;;;1.58;63.74;100329.13;5014350;28;20045;-64
2022/01/14 01:03:02;;;;;;;12.13;7.38;;;;;;;2.02;63.16;100386.75;5013106;28;20503;-65
2022/01/14 01:05:29;;;;;;;14.52;7.82;;;;;;;1.97;62.75;100375.81;4959277;28;20772;-66
2022/01/14 01:08:05;;;;;;;11.02;7.10;;;;;;;2.05;63.31;100381.53;5017632;28;20108;-64
2022/01/14 01:10:32;;;;;;;12.23;6.53;;;;;;;1.94;61.46;100383.59;5013197;28;20117;-66
2022/01/14 01:13:07;;;;;;;12.57;6.53;;;;;;;2.01;61.60;100381.66;5013579;28;20029;-65
2022/01/14 01:15:32;;;;;;;12.02;7.22;;;;;;;2.02;62.56;100388.50;4998051;28;20034;-65
2022/01/14 01:17:58;;;;;;;11.95;7.53;;;;;;;2.09;60.90;100383.13;5009251;28;20543;-65
2022/01/14 01:20:23;;;;;;;11.18;6.75;;;;;;;1.85;62.25;100379.56;5001369;28;20523;-65
2022/01/14 01:22:53;;;;;;;11.73;6.97;;;;;;;1.95;63.45;100379.31;5012311;28;20025;-64
2022/01/14 01:25:22;;;;;;;11.68;7.10;;;;;;;1.93;63.04;100381.91;5018135;28;20037;-64
2022/01/14 01:27:49;;;;;;;10.73;6.80;;;;;;;1.98;63.30;100385.19;5008739;28;20462;-65
2022/01/14 01:30:37;;;;;;;12.10;7.22;;;;;;;1.83;64.12;100376.22;5025252;28;20699;-64
2022/01/14 01:33:04;;;;;;;11.27;6.82;;;;;;;1.91;63.65;100383.69;5025150;28;20075;-66
2022/01/14 01:35:30;;;;;;;11.45;6.72;;;;;;;1.89;62.38;100372.63;5018943;28;20040;-64
2022/01/14 01:37:56;;;;;;;11.02;6.50;;;;;;;1.90;61.64;100374.31;4978685;28;20396;-65
2022/01/14 01:40:23;;;;;;;11.77;6.65;;;;;;;1.77;61.84;100331.94;5015050;28;20116;-64
2022/01/14 01:42:49;;;;;;;12.88;7.25;;;;;;;1.95;63.28;100376.72;5024158;28;20037;-65
2022/01/14 01:45:20;;;;;;;12.27;7.80;;;;;;;1.96;64.60;100363.03;5030182;28;20559;-64
2022/01/14 01:47:49;;;;;;;11.50;6.95;;;;;;;2.02;64.11;100378.22;5021859;28;20506;-64
2022/01/14 01:50:18;;;;;;;13.43;7.78;;;;;;;1.90;65.00;100369.19;5025648;28;20593;-65
2022/01/14 01:52:44;;;;;;;11.33;6.57;;;;;;;2.00;64.54;100385.13;5014071;28;20780;-64
2022/01/14 01:55:09;;;;;;;11.75;7.57;;;;;;;1.97;64.68;100383.50;5040540;28;20040;-65
2022/01/14 01:57:35;;;;;;;13.27;7.70;;;;;;;1.71;65.18;100327.84;5018758;28;20656;-64
2022/01/14 02:00:06;;;;;;;11.45;7.25;;;;;;;1.88;65.53;100379.50;5007889;28;20034;-65
2022/01/14 02:02:31;;;;;;;12.18;7.40;;;;;;;1.85;65.29;100369.31;5019380;28;20436;-64
2022/01/14 02:04:59;;;;;;;12.65;6.78;;;;;;;1.86;65.20;100373.56;5023944;28;20044;-64
2022/01/14 02:07:24;;;;;;;11.80;7.45;;;;;;;1.82;65.42;100378.81;5023055;28;20584;-65
2022/01/14 02:09:49;;;;;;;14.20;7.80;;;;;;;1.74;65.74;100376.50;4975326;28;20034;-65
2022/01/14 02:12:15;;;;;;;10.80;6.68;;;;;;;1.76;65.84;100367.03;5004598;28;20103;-64
2022/01/14 02:14:55;;;;;;;11.50;6.68;;;;;;;1.78;65.26;100354.16;5021304;28;20034;-64
2022/01/14 02:18:26;;;;;;;12.35;7.05;;;;;;;1.75;65.27;100369.63;5020525;28;20074;-64
2022/01/14 02:22:57;;;;;;;13.57;7.13;;;;;;;1.84;65.39;100361.66;5026031;28;20072;-64
2022/01/14 02:25:30;;;;;;;12.38;7.10;;;;;;;1.46;65.48;100299.53;4974104;28;20052;-65
2022/01/14 02:28:07;;;;;;;12.68;7.18;;;;;;;1.83;64.66;100347.19;5042171;28;20033;-64
2022/01/14 02:30:34;;;;;;;12.20;7.05;;;;;;;1.85;65.04;100338.53;5022922;28;20435;-66
2022/01/14 02:33:00;;;;;;;11.18;7.15;;;;;;;1.87;65.10;100339.31;5023048;28;20025;-65
2022/01/14 02:35:26;;;;;;;13.45;7.15;;;;;;;1.57;65.68;100294.09;5028737;28;20033;-65
2022/01/14 02:37:52;;;;;;;12.23;7.00;;;;;;;1.77;65.63;100329.38;5030589;28;20038;-65
2022/01/14 02:40:18;;;;;;;12.27;7.40;;;;;;;1.79;65.44;100328.47;4992325;28;20355;-67
2022/01/14 02:42:43;;;;;;;11.15;6.90;;;;;;;1.77;65.34;100327.69;5005918;28;20045;-64
2022/01/14 02:45:11;;;;;;;11.35;6.95;;;;;;;1.86;65.45;100326.53;5008128;28;20461;-65
2022/01/14 02:47:37;;;;;;;11.40;7.05;;;;;;;1.92;64.35;100334.06;5008665;28;20034;-65
2022/01/14 02:50:05;;;;;;;10.75;7.03;;;;;;;1.96;65.21;100329.69;5026574;28;20064;-65
2022/01/14 02:55:18;;;;;;;11.73;6.70;;;;;;;1.82;65.80;100312.13;5018110;28;20499;-65
2022/01/14 02:57:45;;;;;;;10.55;6.72;;;;;;;1.77;66.49;100324.25;4993625;28;20187;-66
2022/01/14 03:00:11;;;;;;;11.15;7.00;;;;;;;1.63;67.18;100317.00;5003115;28;20515;-65
2022/01/14 03:02:41;;;;;;;11.80;7.28;;;;;;;1.29;67.40;100265.00;5017135;28;21626;-65
2022/01/14 03:05:07;;;;;;;11.90;6.88;;;;;;;1.64;66.87;100322.09;5020503;28;20380;-65
2022/01/14 03:07:33;;;;;;;11.93;6.82;;;;;;;1.48;67.98;100303.75;5023745;28;20025;-64
2022/01/14 03:09:58;;;;;;;12.27;7.53;;;;;;;1.64;67.78;100300.72;5024394;28;20440;-65
2022/01/14 03:12:24;;;;;;;13.30;7.28;;;;;;;1.66;67.60;100304.94;5014772;28;20049;-65
2022/01/14 03:14:49;;;;;;;11.07;6.93;;;;;;;1.59;68.09;100298.31;5024399;28;20041;-64
2022/01/14 03:17:16;;;;;;;14.13;7.28;;;;;;;1.77;67.78;100306.31;5025733;28;20028;-65
2022/01/14 03:19:41;;;;;;;10.10;6.60;;;;;;;1.68;67.71;100304.84;5023003;28;20038;-64
2022/01/14 03:27:10;;;;;;;13.93;7.10;;;;;;;1.62;67.16;100303.31;5023589;28;20033;-65
2022/01/14 03:29:36;;;;;;;10.95;6.45;;;;;;;1.72;66.24;100302.16;4982448;28;20031;-65
2022/01/14 03:32:03;;;;;;;11.00;6.75;;;;;;;1.64;66.90;100299.00;5026355;28;20122;-64
2022/01/14 03:34:29;;;;;;;11.23;6.35;;;;;;;1.63;66.50;100297.31;5028766;28;20104;-65
2022/01/14 03:36:54;;;;;;;9.63;5.93;;;;;;;1.28;66.50;100236.88;5021555;28;20151;-65
2022/01/14 03:39:20;;;;;;;11.15;6.22;;;;;;;1.62;66.57;100299.94;5026070;28;20564;-65
2022/01/14 03:41:46;;;;;;;10.43;6.53;;;;;;;1.59;66.48;100292.31;5028732;28;20033;-64
2022/01/14 03:44:11;;;;;;;11.63;6.63;;;;;;;1.46;66.68;100285.03;4987430;28;20037;-67
2022/01/14 03:46:37;;;;;;;10.65;6.35;;;;;;;1.58;66.39;100286.34;5025742;28;20706;-64
2022/01/14 03:49:02;;;;;;;11.20;6.43;;;;;;;1.62;65.13;100275.13;5008067;28;20033;-65
2022/01/14 03:51:28;;;;;;;10.65;6.30;;;;;;;1.64;65.05;100287.88;5008658;28;20025;-64
2022/01/14 03:53:54;;;;;;;9.77;6.00;;;;;;;1.61;65.20;100288.00;5018103;28;20022;-64
2022/01/14 03:56:21;;;;;;;9.82;5.72;;;;;;;1.54;65.22;100277.91;5018986;28;20048;-65
2022/01/14 03:58:46;;;;;;;13.15;6.00;;;;;;;1.56;65.28;100275.31;5005253;28;20423;-63
2022/01/14 04:01:12;;;;;;;9.45;5.90;;;;;;;1.58;65.68;100278.66;5016601;28;20082;-64
2022/01/14 04:03:39;;;;;;;10.27;5.43;;;;;;;1.63;65.13;100271.69;5021830;28;20037;-65
2022/01/14 04:06:04;;;;;;;9.10;5.50;;;;;;;1.56;64.98;100265.06;5025582;28;20025;-66
2022/01/14 04:08:30;;;;;;;9.35;5.40;;;;;;;1.58;65.22;100258.16;5022870;28;20112;-64
2022/01/14 04:10:57;;;;;;;9.77;5.57;;;;;;;1.64;64.55;100257.13;5006811;28;20036;-64
2022/01/14 04:13:35;;;;;;;9.15;5.45;;;;;;;1.69;64.66;100260.38;5015762;28;20030;-65
2022/01/14 04:16:00;;;;;;;9.27;4.53;;;;;;;1.53;64.64;100239.50;5007858;28;20066;-66
2022/01/14 04:18:26;;;;;;;9.93;5.00;;;;;;;1.31;63.91;100211.13;5035609;28;20025;-64
2022/01/14 04:20:51;;;;;;;8.98;4.85;;;;;;;1.65;63.70;100254.50;5023044;28;20041;-65
2022/01/14 04:23:19;;;;;;;9.10;4.93;;;;;;;1.35;63.37;100194.75;5004250;28;20095;-65
2022/01/14 04:25:45;;;;;;;9.43;5.32;;;;;;;1.65;63.76;100241.69;5022387;28;20043;-66
2022/01/14 04:28:11;;;;;;;9.38;5.45;;;;;;;1.69;64.72;100243.25;5015787;28;20033;-64
2022/01/14 04:30:37;;;;;;;10.68;5.30;;;;;;;1.64;64.76;100237.47;5017246;28;20045;-64
2022/01/14 04:33:04;;;;;;;8.77;5.00;;;;;;;1.62;65.27;100223.84;4982274;28;20060;-65
2022/01/14 04:35:30;;;;;;;9.18;5.47;;;;;;;1.24;65.35;100164.38;5007290;28;20029;-65
2022/01/14 04:37:56;;;;;;;9.95;5.32;;;;;;;1.55;65.87;100214.66;5023816;28;20025;-65
2022/01/14 04:40:21;;;;;;;9.77;5.07;;;;;;;1.60;65.85;100224.78;5030788;28;20022;-66
2022/01/14 04:42:47;;;;;;;9.68;5.53;;;;;;;1.53;66.27;100211.31;5023109;28;20423;-65
2022/01/14 04:45:26;;;;;;;8.45;4.68;;;;;;;1.52;65.78;100200.22;5019372;28;20025;-66
2022/01/14 04:47:51;;;;;;;9.52;4.68;;;;;;;1.58;65.48;100201.75;5011851;28;20440;-65
2022/01/14 04:50:19;;;;;;;9.20;4.90;;;;;;;1.57;64.71;100200.09;5005386;28;20030;-64
2022/01/14 04:52:47;;;;;;;10.18;4.20;;;;;;;1.62;64.02;100203.31;5006581;28;20691;-65
2022/01/14 04:55:14;;;;;;;8.18;4.50;;;;;;;1.37;63.87;100161.41;5016572;28;20468;-65
2022/01/14 04:57:40;;;;;;;10.13;4.30;;;;;;;1.55;64.86;100212.09;5015691;28;20030;-65
2022/01/14 05:00:11;;;;;;;8.15;4.32;;;;;;;1.43;65.53;100194.56;5035519;28;20025;-64
2022/01/14 05:02:37;;;;;;;11.13;4.45;;;;;;;1.65;65.11;100215.22;5027485;28;20029;-65
2022/01/14 05:05:07;;;;;;;8.60;4.82;;;;;;;1.57;65.58;100212.03;4967541;28;20060;-66
2022/01/14 05:07:34;;;;;;;7.70;4.43;;;;;;;1.30;65.10;100153.09;5015006;28;20021;-65
2022/01/14 05:12:31;;;;;;;10.60;4.80;;;;;;;1.65;64.52;100204.97;5022902;28;20052;-64
2022/01/14 05:14:56;;;;;;;9.82;4.82;;;;;;;1.65;64.38;100220.34;5020714;28;20078;-64
2022/01/14 05:17:22;;;;;;;7.78;3.50;;;;;;;1.75;64.02;100208.88;5009880;28;20408;-64
2022/01/14 05:19:47;;;;;;;8.23;4.40;;;;;;;1.72;64.36;100202.16;5018734;28;20121;-66
2022/01/14 05:22:13;;;;;;;6.65;3.90;;;;;;;1.82;63.18;100204.41;4983462;28;20496;-65
2022/01/14 05:24:38;;;;;;;7.13;4.13;;;;;;;1.81;63.97;100195.88;5004019;28;20109;-65
2022/01/14 05:27:04;;;;;;;8.27;4.10;;;;;;;1.66;64.15;100173.28;5016629;28;20037;-65
2022/01/14 05:29:29;;;;;;;8.98;4.35;;;;;;;1.66;64.07;100178.41;5022894;28;20446;-66
2022/01/14 05:32:03;;;;;;;10.45;4.35;;;;;;;1.79;64.24;100184.84;5022214;28;20029;-65
2022/01/14 05:34:33;;;;;;;9.32;4.20;;;;;;;1.75;65.09;100183.25;5016380;28;20025;-65
2022/01/14 05:36:59;;;;;;;8.00;4.45;;;;;;;1.71;65.16;100184.25;5015144;28;20068;-65
2022/01/14 05:39:25;;;;;;;8.40;4.47;;;;;;;1.31;65.38;100126.56;5015662;28;20033;-66
2022/01/14 05:41:51;;;;;;;6.85;3.72;;;;;;;1.75;65.34;100185.81;5019914;28;20071;-65
2022/01/14 05:44:16;;;;;;;7.32;3.92;;;;;;;1.84;64.48;100192.38;5016784;28;20030;-65
2022/01/14 05:46:42;;;;;;;8.15;3.95;;;;;;;1.72;64.83;100191.06;5022932;28;20564;-65
2022/01/14 05:49:07;;;;;;;10.13;4.47;;;;;;;1.66;64.66;100188.66;5041529;28;20037;-65
2022/01/14 05:51:33;;;;;;;8.00;3.88;;;;;;;1.68;65.01;100185.19;5008769;28;20038;-65
2022/01/14 05:53:58;;;;;;;8.25;4.25;;;;;;;1.75;65.02;100183.25;5016868;28;20587;-66
2022/01/14 05:56:24;;;;;;;7.50;4.43;;;;;;;1.64;65.84;100173.38;5019195;28;20471;-65
2022/01/14 05:58:49;;;;;;;10.55;4.72;;;;;;;1.80;66.28;100186.50;5023840;28;20506;-66
2022/01/14 06:01:15;;;;;;;8.27;4.63;;;;;;;1.69;67.66;100189.41;5023507;28;20022;-65
2022/01/14 06:03:40;;;;;;;9.50;4.15;;;;;;;1.68;67.23;100171.50;5025249;28;20052;-65
2022/01/14 06:06:06;;;;;;;8.43;4.47;;;;;;;1.60;66.67;100161.50;4993291;28;20068;-66
2022/01/14 06:08:31;;;;;;;11.02;4.25;;;;;;;1.72;66.50;100189.31;5025145;28;20048;-64
2022/01/14 06:10:57;;;;;;;7.53;4.07;;;;;;;1.68;66.57;100177.50;5021297;28;20861;-66
2022/01/14 06:13:22;;;;;;;7.25;3.83;;;;;;;1.71;66.16;100185.06;5025386;28;20691;-67
2022/01/14 06:15:48;;;;;;;8.10;3.67;;;;;;;1.72;65.66;100173.09;5025004;28;20041;-64
2022/01/14 06:18:13;;;;;;;7.28;3.47;;;;;;;1.80;65.23;100175.41;5033185;28;20635;-65
2022/01/14 06:20:38;;;;;;;7.28;3.83;;;;;;;1.73;66.70;100161.94;5005941;28;20033;-65
2022/01/14 06:23:04;;;;;;;7.72;3.95;;;;;;;1.93;67.58;100181.78;5029416;28;20068;-64
2022/01/14 06:25:29;;;;;;;7.10;3.67;;;;;;;1.82;67.74;100163.38;5035725;28;20056;-64
2022/01/14 06:27:55;;;;;;;7.65;3.80;;;;;;;1.80;68.00;100173.69;5019899;28;20542;-64
2022/01/14 06:30:20;;;;;;;9.07;3.65;;;;;;;1.87;65.72;100172.59;5011505;28;20092;-65
2022/01/14 06:32:51;;;;;;;8.52;3.80;;;;;;;1.75;65.07;100157.59;5019620;28;20035;-65
2022/01/14 06:35:16;;;;;;;6.82;3.28;;;;;;;1.79;64.37;100159.19;5015421;28;20108;-63
2022/01/14 06:37:42;;;;;;;7.18;2.97;;;;;;;1.53;63.65;100107.06;5018571;28;20104;-66
2022/01/14 06:40:09;;;;;;;9.15;3.28;;;;;;;1.89;63.53;100165.66;5017046;28;20395;-64
2022/01/14 06:42:35;;;;;;;6.70;3.30;;;;;;;1.91;63.65;100160.50;5020656;28;20021;-65
2022/01/14 06:45:01;;;;;;;7.10;3.60;;;;;;;1.92;64.04;100157.06;4998113;28;20036;-64
2022/01/14 06:47:26;;;;;;;7.70;3.58;;;;;;;1.51;64.30;100101.09;5003290;28;20022;-65
2022/01/14 06:49:52;;;;;;;6.88;3.45;;;;;;;1.81;64.17;100147.16;5026441;28;20112;-63
2022/01/14 06:52:18;;;;;;;8.20;3.65;;;;;;;1.84;64.26;100164.16;5020642;28;20519;-65
2022/01/14 06:54:43;;;;;;;6.88;3.42;;;;;;;1.81;63.01;100152.28;5037862;28;20064;-64
2022/01/14 06:57:09;;;;;;;6.40;3.17;;;;;;;1.86;62.26;100152.09;5038936;28;20037;-65
2022/01/14 06:59:34;;;;;;;6.88;3.15;;;;;;;1.94;62.62;100164.69;5024743;28;20393;-66
2022/01/14 07:02:00;;;;;;;6.03;3.10;;;;;;;1.85;62.04;100153.00;5022637;28;20443;-65
2022/01/14 07:04:25;;;;;;;7.60;3.25;;;;;;;1.78;62.28;100141.28;4977149;28;20452;-65
2022/01/14 07:06:51;;;;;;;6.47;3.40;;;;;;;1.97;62.43;100144.06;5006780;28;20109;-64
2022/01/14 07:09:16;;;;;;;7.18;3.28;;;;;;;2.00;63.18;100142.22;5020873;28;20029;-63
2022/01/14 07:11:46;;;;;;;7.13;3.30;;;;;;;2.03;63.80;100142.13;5025237;28;20029;-64
2022/01/14 07:14:12;;;;;;;8.68;4.10;;;;;;;1.95;64.32;100127.88;5023634;28;20033;-63
2022/01/14 07:16:37;;;;;;;6.60;3.65;;;;;;;1.95;64.57;100133.84;5018965;28;20045;-66
2022/01/14 07:19:03;;;;;;;6.32;3.20;;;;;;;1.63;65.42;100091.34;5055853;28;20034;-64
2022/01/14 07:21:29;;;;;;;9.05;3.60;;;;;;;1.92;64.88;100150.19;5002987;28;20025;-63
2022/01/14 07:23:54;;;;;;;6.45;3.10;;;;;;;1.90;63.76;100125.47;5022825;28;20044;-66
2022/01/14 07:26:20;;;;;;;7.10;3.38;;;;;;;1.94;64.48;100137.31;5022344;28;20542;-66
2022/01/14 07:28:46;;;;;;;6.68;3.17;;;;;;;1.97;64.16;100136.34;5023691;28;20076;-63
2022/01/14 07:31:11;;;;;;;6.93;3.30;;;;;;;1.95;63.77;100141.53;5017997;28;20026;-63
2022/01/14 07:33:37;;;;;;;6.82;3.13;;;;;;;2.01;63.93;100138.78;5023497;28;20453;-64
2022/01/14 07:36:02;;;;;;;6.35;3.03;;;;;;;2.04;63.25;100132.69;5005112;28;20026;-66
2022/01/14 07:38:28;;;;;;;5.72;3.15;;;;;;;1.94;63.31;100132.19;5013888;28;20128;-64
2022/01/14 07:40:53;;;;;;;6.60;3.13;;;;;;;1.91;63.00;100125.41;5022690;28;20035;-66
2022/01/14 07:43:20;;;;;;;6.72;3.17;;;;;;;1.85;63.05;100120.50;5027198;28;20147;-63
2022/01/14 07:45:47;;;;;;;6.68;3.20;;;;;;;1.92;64.24;100126.28;5007104;28;20095;-64
2022/01/14 07:48:12;;;;;;;6.82;3.15;;;;;;;1.88;64.35;100127.25;5022330;28;20060;-63
2022/01/14 07:50:38;;;;;;;5.45;2.67;;;;;;;1.96;62.39;100127.81;5023824;28;20130;-64
2022/01/14 07:53:04;;;;;;;6.53;3.10;;;;;;;1.91;63.14;100122.84;4996541;28;20037;-64
2022/01/14 07:55:29;;;;;;;8.10;3.40;;;;;;;1.89;63.65;100110.97;5021677;28;20025;-65
2022/01/14 07:57:54;;;;;;;7.57;3.13;;;;;;;1.98;63.72;100114.94;5005695;28;21210;-64
2022/01/14 08:00:20;;;;;;;7.15;3.35;;;;;;;2.00;64.09;100118.28;5018751;28;20018;-64
2022/01/14 08:02:45;;;;;;;8.27;3.47;;;;;;;1.96;64.58;100119.31;5023069;28;20060;-65
2022/01/14 08:05:11;;;;;;;6.97;3.63;;;;;;;1.96;63.99;100119.31;5005462;28;20017;-64
2022/01/14 08:07:44;;;;;;;6.72;3.60;;;;;;;1.99;63.63;100126.88;5024169;28;20026;-64
2022/01/14 08:10:11;;;;;;;6.47;3.33;;;;;;;1.95;63.19;100123.56;4984447;28;20025;-66
2022/01/14 08:12:36;;;;;;;7.95;3.03;;;;;;;1.91;63.49;100114.31;5022745;28;20044;-64
2022/01/14 08:15:04;;;;;;;6.60;3.20;;;;;;;1.93;63.52;100107.41;5018524;28;20034;-64
2022/01/14 08:17:31;;;;;;;7.00;3.15;;;;;;;2.00;63.14;100116.56;5023086;28;20021;-65
2022/01/14 08:19:56;;;;;;;6.47;4.00;;;;;;;1.65;62.75;100054.50;5004453;28;20107;-65
2022/01/14 08:22:21;;;;;;;6.78;3.35;;;;;;;1.96;62.80;100115.00;5025170;28;20550;-68
2022/01/14 08:24:47;;;;;;;6.80;3.08;;;;;;;1.89;64.20;100110.97;5000997;28;20541;-65
2022/01/14 08:27:13;;;;;;;9.18;3.30;;;;;;;1.88;66.89;100112.72;5022230;28;20026;-65
2022/01/14 08:29:38;;;;;;;6.35;3.17;;;;;;;1.99;64.68;100124.31;5018855;28;20055;-63
2022/01/14 08:32:04;;;;;;;7.88;3.33;;;;;;;1.85;64.25;100105.09;5023200;28;20526;-65
2022/01/14 08:34:29;;;;;;;8.73;3.65;;;;;;;1.68;64.52;100079.19;5022237;28;20391;-65
2022/01/14 08:36:55;;;;;;;7.20;3.60;;;;;;;1.86;65.22;100108.50;5024593;28;20025;-64
2022/01/14 08:39:22;;;;;;;7.10;3.70;;;;;;;1.94;65.53;100101.41;5026445;28;20056;-65
2022/01/14 08:41:47;;;;;;;8.45;3.63;;;;;;;1.83;64.97;100068.41;5012263;28;20029;-65
2022/01/14 08:44:14;;;;;;;11.38;3.67;;;;;;;2.00;63.90;100097.78;5028173;28;20052;-65
2022/01/14 08:46:41;;;;;;;6.80;3.33;;;;;;;1.79;65.10;100048.91;5026290;28;20402;-65
2022/01/14 08:49:06;;;;;;;6.63;2.92;;;;;;;2.17;65.04;100097.16;5011369;28;20475;-64
2022/01/14 08:51:32;;;;;;;5.75;2.88;;;;;;;2.21;65.07;100093.59;5024852;28;20156;-64
2022/01/14 08:54:02;;;;;;;6.45;3.13;;;;;;;1.89;65.88;100046.84;5026183;28;20029;-64
2022/01/14 08:56:31;;;;;;;6.82;3.40;;;;;;;2.16;66.63;100086.06;5000846;28;20029;-66
2022/01/14 08:58:57;;;;;;;6.53;3.47;;;;;;;2.08;66.45;100080.34;5024011;28;20810;-63
2022/01/14 09:01:23;;;;;;;6.40;3.40;;;;;;;2.12;65.58;100076.81;5027370;28;20026;-64
2022/01/14 09:03:49;;;;;;;6.25;3.20;;;;;;;2.31;63.38;100079.53;5032644;28;20117;-64
2022/01/14 09:06:14;;;;;;;6.97;3.40;;;;;;;2.25;63.13;100074.63;5026847;28;20039;-64
2022/01/14 09:08:39;;;;;;;6.80;3.30;;;;;;;2.27;62.96;100065.97;5022544;28;20029;-64
2022/01/14 09:11:07;;;;;;;6.32;3.13;;;;;;;2.40;61.26;100068.09;5024506;28;20484;-65
2022/01/14 09:13:33;;;;;;;6.35;3.20;;;;;;;2.41;61.53;100065.47;5001519;28;20573;-65
2022/01/14 09:15:59;;;;;;;5.72;2.88;;;;;;;2.46;61.13;100063.59;5024442;28;20030;-64
2022/01/14 09:18:24;;;;;;;6.70;2.88;;;;;;;2.48;61.17;100054.09;5024014;28;20061;-65
2022/01/14 09:20:50;;;;;;;7.57;3.35;;;;;;;2.42;62.19;100049.16;5027106;28;20041;-65
2022/01/14 09:23:17;;;;;;;6.28;3.40;;;;;;;2.24;61.82;100034.44;5008225;28;20457;-63
2022/01/14 09:25:43;;;;;;;6.85;3.80;;;;;;;2.34;61.47;100048.63;5009795;28;20587;-63
2022/01/14 09:28:08;;;;;;;8.95;4.15;;;;;;;2.06;61.28;100012.88;5011579;28;20071;-65
2022/01/14 09:30:34;;;;;;;8.63;4.40;;;;;;;2.34;62.24;100058.03;5006377;28;20033;-63
2022/01/14 09:32:59;;;;;;;8.50;3.88;;;;;;;2.28;61.31;100048.84;5025335;28;20342;-64
2022/01/14 09:35:25;;;;;;;8.20;4.00;;;;;;;1.97;61.87;99998.69;5023503;28;20396;-64
2022/01/14 09:37:50;;;;;;;8.38;4.07;;;;;;;2.22;62.27;100052.47;5026600;28;20152;-63
2022/01/14 09:40:17;;;;;;;11.00;4.90;;;;;;;2.20;62.82;100050.88;5009248;28;20376;-63
2022/01/14 09:42:49;;;;;;;8.60;4.63;;;;;;;2.24;63.68;100031.88;5024910;28;20037;-65
2022/01/14 09:45:17;;;;;;;8.13;4.47;;;;;;;2.26;63.88;100041.22;4970776;28;20025;-64
2022/01/14 09:47:42;;;;;;;7.00;3.83;;;;;;;2.34;63.05;100050.34;5025193;28;20171;-63
2022/01/14 09:50:08;;;;;;;13.57;4.97;;;;;;;2.34;61.58;100042.63;5026314;28;20448;-63
2022/01/14 09:52:35;;;;;;;16.83;5.75;;;;;;;2.18;63.21;100042.38;5033373;28;20269;-63
2022/01/14 09:55:01;;;;;;;11.45;4.50;;;;;;;2.20;60.58;100035.47;5056175;28;20135;-63
2022/01/14 09:57:26;;;;;;;8.43;4.35;;;;;;;2.24;59.78;100032.72;5024403;28;20404;-63
2022/01/14 09:59:52;;;;;;;8.35;4.13;;;;;;;2.11;59.79;100005.84;5023185;28;20053;-64
2022/01/14 10:02:36;;;;;;;11.27;5.28;;;;;;;2.39;59.85;100036.47;5012590;28;20025;-64
2022/01/14 10:05:03;;;;;;;8.32;3.33;;;;;;;2.73;58.90;100030.00;5024179;28;20087;-63
2022/01/14 10:07:29;;;;;;;8.95;3.63;;;;;;;2.78;59.13;100024.72;5022713;28;20025;-63
2022/01/14 10:09:58;;;;;;;7.40;4.00;;;;;;;2.88;58.09;100018.28;5007318;28;20103;-64
2022/01/14 10:12:24;;;;;;;7.32;3.42;;;;;;;2.90;58.08;100019.06;5040691;28;20026;-64
2022/01/14 10:15:27;;;;;;;6.63;3.40;;;;;;;3.14;59.00;100013.81;5015493;28;20036;-65
2022/01/14 10:17:59;;;;;;;8.50;2.97;;;;;;;3.25;54.77;100006.53;5016269;28;20049;-65
2022/01/14 10:20:36;;;;;;;6.10;3.15;;;;;;;3.38;56.85;100001.69;5013481;28;20037;-64
2022/01/14 10:23:01;;;;;;;7.55;2.90;;;;;;;3.28;57.90;99972.97;5018487;28;20063;-63
2022/01/14 10:25:26;;;;;;;7.85;3.45;;;;;;;3.51;60.52;99991.72;5026152;28;20510;-63
2022/01/14 10:27:53;;;;;;;7.97;3.30;;;;;;;3.47;60.91;99947.31;5024944;28;20025;-64
2022/01/14 10:30:23;;;;;;;7.32;3.35;;;;;;;3.73;58.09;99969.31;5024270;28;20056;-63
2022/01/14 10:33:00;;;;;;;8.00;3.30;;;;;;;3.80;56.34;99977.59;5057857;28;20171;-63
2022/01/14 10:35:30;;;;;;;7.70;2.90;;;;;;;3.84;56.93;99979.94;5014316;28;20032;-64
2022/01/14 10:37:59;;;;;;;6.88;3.47;;;;;;;3.86;56.87;99969.59;5021607;28;20121;-64
2022/01/14 10:40:28;;;;;;;8.60;3.50;;;;;;;3.89;56.31;99964.31;5022566;28;20028;-64
2022/01/14 10:43:03;;;;;;;10.25;3.28;;;;;;;3.97;56.80;99964.78;5057966;28;20155;-63
2022/01/14 10:45:29;;;;;;;6.15;3.00;;;;;;;3.93;58.44;99950.41;5020742;28;20034;-63
2022/01/14 10:48:09;;;;;;;6.32;3.63;;;;;;;4.07;57.95;99961.78;5024091;28;20083;-64
2022/01/14 10:51:07;;;;;;;5.85;2.88;;;;;;;4.13;55.83;99953.81;4958904;28;20716;-65
2022/01/14 10:57:11;;;;;;;7.13;3.30;;;;;;;4.29;59.31;99923.84;5019422;28;20167;-63
2022/01/14 10:59:36;;;;;;;7.90;3.80;;;;;;;4.04;59.49;99872.69;5008331;28;20507;-64
2022/01/14 11:02:41;;;;;;;7.90;3.80;;;;;;;4.34;58.28;99919.31;5023681;28;20018;-64
2022/01/14 11:05:08;;;;;;;6.55;2.80;;;;;;;4.13;55.82;99892.84;5020170;28;20033;-63
2022/01/14 11:07:34;;;;;;;6.65;2.85;;;;;;;4.06;54.43;99875.19;5051940;28;20103;-64
2022/01/14 11:10:00;;;;;;;6.32;3.13;;;;;;;4.47;53.54;99903.25;5023397;28;20120;-64
2022/01/14 11:12:26;;;;;;;7.43;2.65;;;;;;;4.53;52.26;99900.41;5007742;28;20372;-63
2022/01/14 11:14:52;;;;;;;5.97;2.67;;;;;;;4.59;51.95;99887.22;5004349;28;20040;-63
2022/01/14 11:17:17;;;;;;;6.35;2.53;;;;;;;4.49;51.52;99873.13;5025016;28;20029;-64
2022/01/14 11:19:46;;;;;;;6.57;2.80;;;;;;;4.65;51.33;99880.94;5019419;28;20591;-64
2022/01/14 11:24:57;;;;;;;5.57;2.78;;;;;;;4.77;50.16;99857.97;5024487;28;20091;-65
2022/01/14 11:27:23;;;;;;;5.55;2.60;;;;;;;4.87;48.91;99854.91;5019197;28;20033;-64
2022/01/14 11:29:49;;;;;;;6.72;2.47;;;;;;;5.06;48.32;99854.81;5039010;28;20050;-64
2022/01/14 11:32:15;;;;;;;6.75;2.83;;;;;;;5.05;48.85;99842.84;5021897;28;20467;-64
2022/01/14 11:34:47;;;;;;;13.43;3.08;;;;;;;5.04;48.91;99846.31;5021989;28;20026;-64
2022/01/14 11:37:31;;;;;;;5.82;2.53;;;;;;;5.16;48.73;99845.69;5018665;28;20062;-64
2022/01/14 11:40:05;;;;;;;6.72;2.67;;;;;;;5.15;49.73;99825.97;5016290;28;20022;-64
2022/01/14 11:42:44;;;;;;;5.35;2.22;;;;;;;5.24;49.13;99815.19;5026219;28;20153;-64
2022/01/14 11:45:15;;;;;;;5.05;2.45;;;;;;;5.38;48.29;99822.16;5053957;28;20675;-64
2022/01/14 11:47:43;;;;;;;5.13;2.13;;;;;;;5.35;49.31;99812.84;5003948;28;20042;-65
2022/01/14 11:50:21;;;;;;;7.03;2.45;;;;;;;5.19;50.43;99787.03;5012421;28;20117;-66
2022/01/14 11:52:49;;;;;;;5.72;2.50;;;;;;;5.27;50.19;99796.94;5034388;28;20034;-64
2022/01/14 11:55:34;;;;;;;7.13;2.97;;;;;;;5.32;50.17;99810.44;5035803;28;20063;-63
2022/01/14 11:58:03;;;;;;;5.22;2.50;;;;;;;5.29;51.46;99804.59;5024788;28;20187;-64
2022/01/14 12:00:33;;;;;;;4.97;2.33;;;;;;;4.92;51.36;99762.72;5014230;28;20053;-65
2022/01/14 12:03:11;;;;;;;5.78;2.60;;;;;;;4.89;52.25;99756.00;5026587;28;20158;-65